MDPP/POP METAR and TAF weather

Enter ICAO airport designator
Station Type Date Time Source
MDPP METAR 2021/05/11 00:00 UTC NOAA

MDPP 110000Z 13006KT 9999 FEW017 SCT018 SCT300 27/24 Q1017


Station Type Date Time Source
MDPP Decoded METAR 2021/05/11 00:00 UTC NOAA

Puerto Plata International, Dominican Republic (MDPP) 19-45N 070-33W
May 10, 2021 - 08:00 PM EDT / 2021.05.11 0000 UTC
Wind: from the SE (130 degrees) at 7 MPH (6 KT):0
Visibility: greater than 7 mile(s):0
Sky conditions: partly cloudy
Temperature: 80 F (27 C)
Dew Point: 75 F (24 C)
Relative Humidity: 83%
Pressure (altimeter): 30.03 in. Hg (1017 hPa)
ob: MDPP 110000Z 13006KT 9999 FEW017 SCT018 SCT300 27/24 Q1017
cycle: 0

Station Type Date Time Source
MDPP TAF 2021/05/10 18:53 UTC NOAA

TAF MDPP 101600Z 1018/1118 10015KT 9999 SCT018 SCT300 PROB30 1018/1100 8000 -RA BKN015

Example: see airport list